メインページ
METAR-TAF:

METAR-TAF

空港 :

Friday Harbor Airport

Friday Harbor, ワシントン, アメリカ合衆国

緯度: 48-31-13N, 経度: 123-01-31W, 海抜: 33m

現時点の気象観測

当レポートは1時間4分前の11:53(UTC)に作成
無風
気温 10°C
湿度 87%
気圧 1018 hPa
視程: 12.9km
高度11000ftの曇り

METAR: KFHR 231153Z AUTO 00000KT 8SM OVC110 10/08 A3006 RMK AO2 SLP178 T01000083 10117 20094 53006

時間: 05:57 (12:57 UTC)


TAF: 見つかりません

4,000以上の空港の気象観測と天気予報(METAR報とTAF報)

利用可能な観測所は地図上に黄色い丸と赤い丸で示す。

丸の上にカーソルを重ねると観測所名を参照できる。

次にクリックすると気象観測と天気予報を参照できる。

マップの切り替え:黒色「×」印の緑ボタンをクリックして拡大、「-」印の緑ボタンをクリックして縮小、緑色の三角印をクリックして隣りの地図に切り替え


METAR-TAF: